createdAt,value
2024-01-24T00:00:20.258Z,2.48
2024-01-24T00:02:50.554Z,2.49
2024-01-24T00:05:20.589Z,2.51
2024-01-24T00:07:50.513Z,2.52
2024-01-24T00:10:24.542Z,2.54
2024-01-24T00:12:54.869Z,2.59
2024-01-24T00:15:24.987Z,2.58
2024-01-24T00:17:55.160Z,2.67
2024-01-24T00:20:25.715Z,2.73
2024-01-24T00:22:55.726Z,2.74
2024-01-24T00:25:28.284Z,2.76
2024-01-24T00:27:58.311Z,2.74
2024-01-24T00:30:28.224Z,2.78
2024-01-24T00:32:58.241Z,2.78
2024-01-24T00:35:28.228Z,2.81
2024-01-24T00:37:58.234Z,2.89
2024-01-24T00:40:30.760Z,2.90
2024-01-24T00:43:01.832Z,2.91
2024-01-24T00:45:31.768Z,2.91
2024-01-24T00:48:01.890Z,2.94
2024-01-24T00:50:32.925Z,2.93
2024-01-24T00:53:04.518Z,2.97
2024-01-24T00:55:37.834Z,3.00
2024-01-24T00:58:08.068Z,3.05
2024-01-24T01:00:38.870Z,3.06
2024-01-24T01:03:11.456Z,3.07
2024-01-24T01:05:42.006Z,3.04
2024-01-24T01:08:11.992Z,3.03
2024-01-24T01:10:44.542Z,3.07
2024-01-24T01:13:14.873Z,3.05
2024-01-24T01:15:45.149Z,3.08
2024-01-24T01:18:15.487Z,3.08
2024-01-24T01:20:45.868Z,3.06
2024-01-24T01:23:16.080Z,3.06
2024-01-24T01:25:48.850Z,3.10
2024-01-24T01:28:19.288Z,3.13
2024-01-24T01:30:49.345Z,3.16
2024-01-24T01:33:19.651Z,3.17
2024-01-24T01:35:51.058Z,3.20
2024-01-24T01:38:21.776Z,3.18
2024-01-24T01:40:54.647Z,3.17
2024-01-24T01:43:25.458Z,3.15
2024-01-24T01:46:01.445Z,3.18
2024-01-24T01:48:31.540Z,3.19
2024-01-24T01:51:01.668Z,3.19
2024-01-24T01:53:32.147Z,3.24
2024-01-24T01:56:05.636Z,3.30
2024-01-24T01:58:35.549Z,3.31
2024-01-24T02:01:06.416Z,3.33
2024-01-24T02:03:41.636Z,3.40
2024-01-24T02:06:12.167Z,3.43
2024-01-24T02:08:42.419Z,3.42
2024-01-24T02:11:16.085Z,3.40
2024-01-24T02:13:46.052Z,3.37
2024-01-24T02:16:19.228Z,3.34
2024-01-24T02:18:51.560Z,3.29
2024-01-24T02:21:21.577Z,3.24
2024-01-24T02:23:51.765Z,3.21
2024-01-24T02:26:24.232Z,3.14
2024-01-24T02:28:54.139Z,3.11
2024-01-24T02:31:24.021Z,3.08
2024-01-24T02:33:54.026Z,3.06
2024-01-24T02:36:24.381Z,3.05
2024-01-24T02:38:56.882Z,3.05
2024-01-24T02:41:31.106Z,3.10
2024-01-24T02:44:01.121Z,3.07
2024-01-24T02:46:31.009Z,3.02
2024-01-24T02:49:00.996Z,2.98
2024-01-24T02:51:31.374Z,2.94
2024-01-24T02:54:01.493Z,2.92
2024-01-24T02:56:34.939Z,2.89
2024-01-24T02:59:04.913Z,2.91
2024-01-24T03:01:34.914Z,2.91
2024-01-24T03:04:04.922Z,2.97
2024-01-24T03:06:35.078Z,3.06
2024-01-24T03:09:05.097Z,3.12
2024-01-24T03:11:37.573Z,3.24
2024-01-24T03:14:07.564Z,3.33
2024-01-24T03:16:38.446Z,3.43
2024-01-24T03:19:08.961Z,3.46
2024-01-24T03:21:38.969Z,3.49
2024-01-24T03:24:09.570Z,3.50
2024-01-24T03:26:42.098Z,3.47
2024-01-24T03:29:11.955Z,3.50
2024-01-24T03:31:45.903Z,3.53
2024-01-24T03:34:16.359Z,3.67
2024-01-24T03:36:48.609Z,3.77
2024-01-24T03:39:18.601Z,3.82
2024-01-24T03:41:51.271Z,3.92
2024-01-24T03:44:21.174Z,4.04
2024-01-24T03:46:51.068Z,4.14
2024-01-24T03:49:23.093Z,4.24
2024-01-24T03:51:53.095Z,4.36
2024-01-24T03:54:23.683Z,4.29
2024-01-24T03:56:56.288Z,4.25
2024-01-24T03:59:26.204Z,4.15
2024-01-24T04:01:56.118Z,4.09
2024-01-24T04:04:26.178Z,4.13
2024-01-24T04:06:56.312Z,4.25
2024-01-24T04:09:26.455Z,4.30
2024-01-24T04:11:59.263Z,4.33
2024-01-24T04:14:32.351Z,4.35
2024-01-24T04:17:02.318Z,4.49
2024-01-24T04:19:32.588Z,4.65
2024-01-24T04:22:02.627Z,4.66
2024-01-24T04:24:32.856Z,4.57
2024-01-24T04:27:05.380Z,4.61
2024-01-24T04:29:35.359Z,4.58
2024-01-24T04:32:05.275Z,4.52
2024-01-24T04:34:36.274Z,4.53
2024-01-24T04:37:06.705Z,4.50
2024-01-24T04:39:36.824Z,4.50
2024-01-24T04:42:16.133Z,4.57
2024-01-24T04:44:47.424Z,4.52
2024-01-24T04:47:17.428Z,4.52
2024-01-24T04:49:47.761Z,4.49
2024-01-24T04:52:17.821Z,4.41
2024-01-24T04:54:47.807Z,4.35
2024-01-24T04:57:20.429Z,4.37
2024-01-24T04:59:55.891Z,4.39
2024-01-24T05:02:26.801Z,4.36
2024-01-24T05:04:56.767Z,4.26
2024-01-24T05:07:29.042Z,4.19
2024-01-24T05:09:59.003Z,4.24
2024-01-24T05:12:31.528Z,4.19
2024-01-24T05:15:01.552Z,4.16
2024-01-24T05:17:32.430Z,4.06
2024-01-24T05:20:03.208Z,4.04
2024-01-24T05:22:33.625Z,3.97
2024-01-24T05:25:03.633Z,3.89
2024-01-24T05:27:36.200Z,3.88
2024-01-24T05:30:16.357Z,3.87
2024-01-24T05:32:54.797Z,3.88
2024-01-24T05:35:24.815Z,3.88
2024-01-24T05:37:54.776Z,3.89
2024-01-24T05:40:24.894Z,3.88
2024-01-24T05:42:57.689Z,3.88
2024-01-24T05:45:27.737Z,3.90
2024-01-24T05:47:57.987Z,3.91
2024-01-24T05:50:28.218Z,3.91
2024-01-24T05:52:59.488Z,3.91
2024-01-24T05:55:30.088Z,3.91
2024-01-24T05:58:03.107Z,3.92
2024-01-24T06:00:33.069Z,3.91
2024-01-24T06:03:02.979Z,3.94
2024-01-24T06:05:34.239Z,3.94
2024-01-24T06:08:06.759Z,3.94
2024-01-24T06:10:37.473Z,3.97
2024-01-24T06:13:10.117Z,4.00
2024-01-24T06:15:40.183Z,4.04
2024-01-24T06:18:10.810Z,4.06
2024-01-24T06:20:40.825Z,4.08
2024-01-24T06:23:10.727Z,4.10
2024-01-24T06:25:40.583Z,4.13
2024-01-24T06:28:14.455Z,4.16
2024-01-24T06:30:44.381Z,4.17
2024-01-24T06:33:17.196Z,4.17
2024-01-24T06:35:47.256Z,4.18
2024-01-24T06:38:17.341Z,4.30
2024-01-24T06:40:47.786Z,4.30
2024-01-24T06:43:21.853Z,4.34
2024-01-24T06:45:51.858Z,4.39
2024-01-24T06:48:22.278Z,4.44
2024-01-24T06:50:52.493Z,4.44
2024-01-24T06:53:22.352Z,4.52
2024-01-24T06:55:52.280Z,4.53
2024-01-24T06:58:24.717Z,4.58
2024-01-24T07:00:54.699Z,4.59
2024-01-24T07:03:25.102Z,4.60
2024-01-24T07:05:55.062Z,4.63
2024-01-24T07:08:25.435Z,4.65
2024-01-24T07:10:56.303Z,4.70
2024-01-24T07:13:28.765Z,4.76
2024-01-24T07:15:58.892Z,4.77
2024-01-24T07:18:29.390Z,4.84
2024-01-24T07:20:59.484Z,4.93
2024-01-24T07:23:29.375Z,4.96
2024-01-24T07:26:01.327Z,4.94
2024-01-24T07:28:36.363Z,4.96
2024-01-24T07:31:08.668Z,4.91
2024-01-24T07:33:39.690Z,4.88
2024-01-24T07:36:09.803Z,4.90
2024-01-24T07:38:40.783Z,4.94
2024-01-24T07:41:11.456Z,5.01
2024-01-24T07:43:44.149Z,5.07
2024-01-24T07:46:14.403Z,5.12
2024-01-24T07:48:45.920Z,5.25
2024-01-24T07:51:16.164Z,5.32
2024-01-24T07:53:49.761Z,5.38
2024-01-24T07:56:26.012Z,5.50
2024-01-24T07:59:00.636Z,5.60
2024-01-24T08:04:40.212Z,5.74
2024-01-24T08:07:10.496Z,5.85
2024-01-24T08:09:40.621Z,5.83
2024-01-24T08:12:11.415Z,5.95
2024-01-24T08:14:44.700Z,5.95
2024-01-24T08:17:16.989Z,6.13
2024-01-24T08:19:47.123Z,6.21
2024-01-24T08:22:17.203Z,6.31
2024-01-24T08:24:47.341Z,6.45
2024-01-24T08:27:17.658Z,6.53
2024-01-24T09:11:31.862Z,7.74
2024-01-24T09:14:10.554Z,7.79
2024-01-24T09:16:40.715Z,7.76
2024-01-24T09:19:11.633Z,7.73
2024-01-24T09:21:41.912Z,7.66
2024-01-24T09:24:19.400Z,7.61
2024-01-24T09:26:52.174Z,7.57
2024-01-24T09:29:22.853Z,7.55
2024-01-24T09:31:53.613Z,7.60
2024-01-24T09:34:25.147Z,7.56
2024-01-24T09:36:58.002Z,7.58
2024-01-24T09:39:30.337Z,7.61
2024-01-24T09:42:05.771Z,7.63
2024-01-24T09:44:37.729Z,7.67
2024-01-24T09:47:09.200Z,7.66
2024-01-24T09:49:39.782Z,7.69
2024-01-24T09:52:12.267Z,7.72
2024-01-24T09:54:42.944Z,7.76
2024-01-24T09:57:17.494Z,7.84
2024-01-24T09:59:47.754Z,7.91
2024-01-24T10:02:18.042Z,7.96
2024-01-24T10:04:48.598Z,8.04
2024-01-24T10:07:19.802Z,8.13
2024-01-24T10:09:50.561Z,8.17
2024-01-24T10:12:23.516Z,8.15
2024-01-24T10:14:54.502Z,8.27
2024-01-24T10:17:25.983Z,8.35
2024-01-24T10:19:56.202Z,8.43
2024-01-24T10:22:26.271Z,8.54
2024-01-24T10:24:57.783Z,8.56
2024-01-24T10:30:00.783Z,8.71
2024-01-24T10:32:32.006Z,8.76
2024-01-24T10:35:02.375Z,8.76
2024-01-24T10:37:35.485Z,8.75
2024-01-24T10:40:13.207Z,8.74
2024-01-24T10:42:48.560Z,8.73
2024-01-24T10:45:21.948Z,8.73
2024-01-24T10:47:53.215Z,8.75
2024-01-24T10:50:24.469Z,8.76
2024-01-24T10:52:56.316Z,8.78
2024-01-24T10:55:27.642Z,8.79
2024-01-24T10:58:00.933Z,8.84
2024-01-24T11:00:32.373Z,8.90
2024-01-24T11:03:03.602Z,8.99
2024-01-24T11:05:44.800Z,9.03
2024-01-24T11:08:36.002Z,9.00
2024-01-24T11:11:16.960Z,9.03
2024-01-24T11:13:50.941Z,9.11
2024-01-24T11:16:41.160Z,9.27
2024-01-24T11:19:25.286Z,9.35
2024-01-24T11:21:56.908Z,9.33
2024-01-24T11:24:51.602Z,9.20
2024-01-24T11:27:32.765Z,9.06
2024-01-24T11:30:20.464Z,8.95
2024-01-24T11:33:06.155Z,8.77
2024-01-24T11:35:38.605Z,8.64
2024-01-24T11:38:19.993Z,8.52
2024-01-24T11:40:55.467Z,8.43
2024-01-24T11:43:27.816Z,8.38
2024-01-24T11:46:02.936Z,8.33
2024-01-24T11:48:34.269Z,8.28
2024-01-24T11:51:06.118Z,8.23
2024-01-24T11:53:36.646Z,8.26
2024-01-24T11:56:09.605Z,8.26
2024-01-24T11:58:39.727Z,8.25
2024-01-24T12:01:13.795Z,8.25
2024-01-24T12:03:51.407Z,8.25
2024-01-24T12:06:24.273Z,8.23
2024-01-24T12:08:58.180Z,8.19
2024-01-24T12:11:28.692Z,8.18
2024-01-24T12:13:59.028Z,8.18
2024-01-24T12:16:31.850Z,8.19
2024-01-24T12:19:02.848Z,8.17
2024-01-24T12:21:33.763Z,8.18
2024-01-24T12:24:06.839Z,8.17
2024-01-24T12:26:37.980Z,8.17
2024-01-24T12:29:11.862Z,8.16
2024-01-24T12:31:47.157Z,8.18
2024-01-24T12:34:18.315Z,8.17
2024-01-24T12:36:49.358Z,8.37
2024-01-24T12:39:19.489Z,8.69
2024-01-24T12:41:51.294Z,8.80
2024-01-24T12:44:21.904Z,8.88
2024-01-24T12:47:00.485Z,8.90
2024-01-24T12:49:33.298Z,8.90
2024-01-24T12:52:03.671Z,8.94
2024-01-24T12:54:33.871Z,8.98
2024-01-24T12:57:04.022Z,9.02
2024-01-24T12:59:34.060Z,9.07
2024-01-24T13:02:07.203Z,9.09
2024-01-24T13:04:37.499Z,9.05
2024-01-24T13:07:10.134Z,8.97
2024-01-24T13:09:46.111Z,8.92
2024-01-24T13:12:23.846Z,8.96
2024-01-24T13:14:54.076Z,8.99
2024-01-24T13:17:26.915Z,9.02
2024-01-24T13:19:57.707Z,9.05
2024-01-24T13:22:29.004Z,9.06
2024-01-24T13:24:58.965Z,9.07
2024-01-24T13:27:29.113Z,9.08
2024-01-24T13:30:01.603Z,9.10
2024-01-24T13:32:34.532Z,9.14
2024-01-24T13:35:04.614Z,9.21
2024-01-24T13:37:35.020Z,9.25
2024-01-24T13:40:10.237Z,9.26
2024-01-24T13:42:40.600Z,9.26
2024-01-24T13:45:11.582Z,9.27
2024-01-24T13:47:44.248Z,9.29
2024-01-24T13:50:15.168Z,9.33
2024-01-24T13:52:45.841Z,9.36
2024-01-24T13:55:16.033Z,9.38
2024-01-24T13:57:46.850Z,9.43
2024-01-24T14:00:18.472Z,9.49
2024-01-24T14:02:51.090Z,9.51
2024-01-24T14:05:21.260Z,9.52
2024-01-24T14:07:51.352Z,9.56
2024-01-24T14:10:22.156Z,9.53
2024-01-24T14:12:52.564Z,9.51
2024-01-24T14:15:32.926Z,9.51
2024-01-24T14:18:09.289Z,9.50
2024-01-24T14:20:40.336Z,9.49
2024-01-24T14:23:11.685Z,9.49
2024-01-24T14:25:41.620Z,9.47
2024-01-24T14:28:11.640Z,9.46
2024-01-24T14:30:41.940Z,9.42
2024-01-24T14:33:18.108Z,9.40
2024-01-24T14:35:54.197Z,9.41
2024-01-24T14:38:24.169Z,9.37
2024-01-24T14:40:54.598Z,9.36
2024-01-24T14:43:24.495Z,9.37
2024-01-24T14:45:54.802Z,9.38
2024-01-24T14:48:27.599Z,9.36
2024-01-24T14:50:57.999Z,9.40
2024-01-24T14:53:28.594Z,9.49
2024-01-24T14:55:58.620Z,9.41
2024-01-24T14:58:29.463Z,9.31
2024-01-24T15:00:59.616Z,9.02
2024-01-24T15:06:43.770Z,8.72
2024-01-24T15:09:14.153Z,8.58
2024-01-24T15:11:44.458Z,8.47
2024-01-24T15:14:14.373Z,8.34
2024-01-24T15:16:44.341Z,8.24
2024-01-24T15:19:14.664Z,8.17
2024-01-24T15:21:47.377Z,8.05
2024-01-24T15:24:17.453Z,7.94
2024-01-24T15:26:47.468Z,7.91
2024-01-24T15:29:17.841Z,7.93
2024-01-24T15:31:47.853Z,7.97
2024-01-24T15:34:18.131Z,7.94
2024-01-24T15:36:51.133Z,7.92
2024-01-24T15:39:21.718Z,7.88
2024-01-24T15:42:01.814Z,7.81
2024-01-24T15:44:33.329Z,7.86
2024-01-24T15:47:04.574Z,7.82
2024-01-24T15:49:34.647Z,7.76
2024-01-24T15:52:08.471Z,7.70
2024-01-24T15:54:40.592Z,7.81
2024-01-24T15:57:10.579Z,7.80
2024-01-24T15:59:40.645Z,7.83
2024-01-24T16:02:11.229Z,7.83
2024-01-24T16:04:41.356Z,7.83
2024-01-24T16:07:15.652Z,7.80
2024-01-24T16:09:46.274Z,7.83
2024-01-24T16:12:17.225Z,7.87
2024-01-24T16:14:47.832Z,7.89
2024-01-24T16:17:17.841Z,7.88
2024-01-24T16:19:48.401Z,7.84
2024-01-24T16:22:26.840Z,7.86
2024-01-24T16:25:02.770Z,7.91
2024-01-24T16:27:35.449Z,7.96
2024-01-24T16:30:06.130Z,7.91
2024-01-24T16:32:36.275Z,7.90
2024-01-24T16:35:13.352Z,7.83
2024-01-24T16:37:46.992Z,7.87
2024-01-24T16:40:17.270Z,7.90
2024-01-24T16:42:47.408Z,7.90
2024-01-24T16:45:17.872Z,7.87
2024-01-24T16:47:48.322Z,7.91
2024-01-24T16:50:18.680Z,7.87
2024-01-24T16:52:51.231Z,7.91
2024-01-24T16:55:21.412Z,7.84
2024-01-24T16:57:51.323Z,7.87
2024-01-24T17:00:21.726Z,7.93
2024-01-24T17:02:58.233Z,7.96
2024-01-24T17:05:28.970Z,7.93
2024-01-24T17:08:01.529Z,7.92
2024-01-24T17:10:31.394Z,7.95
2024-01-24T17:13:01.911Z,8.00
2024-01-24T17:15:31.954Z,8.04
2024-01-24T17:18:05.390Z,8.05
2024-01-24T17:20:35.442Z,8.01
2024-01-24T17:23:08.345Z,7.97
2024-01-24T17:25:38.221Z,8.01
2024-01-24T17:28:09.133Z,7.97
2024-01-24T17:30:39.073Z,7.93
2024-01-24T17:33:09.313Z,7.88
2024-01-24T17:35:39.264Z,7.84
2024-01-24T17:38:11.804Z,7.80
2024-01-24T17:40:41.714Z,7.78
2024-01-24T17:43:11.676Z,7.79
2024-01-24T17:45:41.725Z,7.80
2024-01-24T17:48:11.881Z,7.80
2024-01-24T17:50:41.877Z,7.78
2024-01-24T17:53:15.091Z,7.77
2024-01-24T17:55:47.285Z,7.77
2024-01-24T17:58:17.731Z,7.75
2024-01-24T18:00:47.895Z,7.73
2024-01-24T18:03:17.835Z,7.75
2024-01-24T18:05:48.971Z,7.62
2024-01-24T18:08:23.527Z,7.52
2024-01-24T18:10:55.223Z,7.54
2024-01-24T18:13:25.257Z,7.61
2024-01-24T18:15:56.376Z,7.63
2024-01-24T18:18:26.615Z,7.59
2024-01-24T18:20:57.810Z,7.55
2024-01-24T18:23:31.562Z,7.50
2024-01-24T18:26:01.565Z,7.54
2024-01-24T18:28:31.464Z,7.55
2024-01-24T18:31:01.476Z,7.60
2024-01-24T18:33:31.765Z,7.58
2024-01-24T18:36:01.783Z,7.66
2024-01-24T18:38:34.447Z,7.74
2024-01-24T18:41:04.575Z,7.70
2024-01-24T18:43:34.621Z,7.70
2024-01-24T18:46:04.746Z,7.70
2024-01-24T18:48:34.929Z,7.72
2024-01-24T18:51:05.052Z,7.68
2024-01-24T18:53:37.978Z,7.66
2024-01-24T18:56:08.867Z,7.62
2024-01-24T18:58:39.269Z,7.58
2024-01-24T19:01:09.684Z,7.54
2024-01-24T19:03:40.856Z,7.40
2024-01-24T19:06:12.261Z,7.36
2024-01-24T19:08:44.867Z,7.38
2024-01-24T19:11:14.996Z,7.32
2024-01-24T19:13:44.967Z,7.27
2024-01-24T19:16:15.119Z,7.18
2024-01-24T19:18:46.187Z,7.18
2024-01-24T19:21:16.210Z,7.16
2024-01-24T19:23:48.753Z,7.15
2024-01-24T19:26:19.324Z,7.11
2024-01-24T19:28:49.743Z,7.10
2024-01-24T19:31:20.718Z,7.12
2024-01-24T19:33:52.528Z,7.09
2024-01-24T19:36:23.289Z,7.07
2024-01-24T19:38:55.781Z,7.04
2024-01-24T19:41:25.904Z,7.04
2024-01-24T19:43:55.876Z,6.97
2024-01-24T19:46:26.038Z,6.91
2024-01-24T19:48:56.116Z,6.87
2024-01-24T19:51:26.153Z,6.88
2024-01-24T19:53:59.045Z,6.91
2024-01-24T19:56:29.204Z,6.98
2024-01-24T19:59:00.558Z,7.04
2024-01-24T20:01:30.625Z,7.05
2024-01-24T20:04:00.660Z,6.99
2024-01-24T20:06:30.644Z,6.87
2024-01-24T20:09:03.261Z,6.81
2024-01-24T20:11:33.360Z,6.79
2024-01-24T20:14:03.495Z,6.66
2024-01-24T20:16:33.508Z,6.52
2024-01-24T20:19:03.482Z,6.39
2024-01-24T20:21:33.554Z,6.29
2024-01-24T20:24:06.471Z,6.19
2024-01-24T20:26:37.042Z,6.13
2024-01-24T20:29:07.231Z,6.10
2024-01-24T20:31:37.118Z,6.14
2024-01-24T20:34:07.471Z,6.11
2024-01-24T20:36:38.489Z,6.16
2024-01-24T20:39:11.257Z,6.24
2024-01-24T20:41:41.515Z,6.34
2024-01-24T20:44:11.423Z,6.39
2024-01-24T20:46:41.482Z,6.40
2024-01-24T20:49:11.698Z,6.47
2024-01-24T20:51:42.203Z,6.42
2024-01-24T20:54:14.794Z,6.45
2024-01-24T20:56:45.281Z,6.41
2024-01-24T20:59:16.237Z,6.45
2024-01-24T21:01:47.365Z,6.37
2024-01-24T21:04:17.580Z,6.47
2024-01-24T21:06:49.152Z,6.52
2024-01-24T21:09:22.032Z,6.52
2024-01-24T21:11:52.050Z,6.58
2024-01-24T21:14:22.840Z,6.58
2024-01-24T21:16:52.782Z,6.51
2024-01-24T21:19:25.840Z,6.52
2024-01-24T21:21:56.299Z,6.58
2024-01-24T21:24:28.907Z,6.62
2024-01-24T21:26:58.808Z,6.62
2024-01-24T21:29:28.684Z,6.58
2024-01-24T21:31:59.730Z,6.60
2024-01-24T21:34:30.472Z,6.66
2024-01-24T21:37:01.548Z,6.72
2024-01-24T21:39:34.057Z,6.75
2024-01-24T21:42:03.976Z,6.74
2024-01-24T21:44:33.858Z,6.70
2024-01-24T21:47:03.729Z,6.64
2024-01-24T21:49:34.928Z,6.61
2024-01-24T21:52:04.941Z,6.59
2024-01-24T21:54:37.522Z,6.60
2024-01-24T21:57:07.940Z,6.51
2024-01-24T21:59:37.800Z,6.46
2024-01-24T22:02:08.191Z,6.47
2024-01-24T22:04:38.280Z,6.52
2024-01-24T22:07:08.277Z,6.61
2024-01-24T22:09:40.766Z,6.77
2024-01-24T22:12:11.591Z,6.83
2024-01-24T22:14:41.454Z,6.89
2024-01-24T22:17:11.357Z,6.91
2024-01-24T22:19:41.297Z,6.91
2024-01-24T22:22:11.263Z,6.93
2024-01-24T22:24:43.851Z,6.97
2024-01-24T22:27:14.086Z,6.96
2024-01-24T22:29:43.982Z,6.91
2024-01-24T22:32:14.128Z,6.91
2024-01-24T22:34:44.114Z,6.88
2024-01-24T22:37:18.680Z,6.81
2024-01-24T22:39:51.443Z,6.72
2024-01-24T22:42:21.354Z,6.59
2024-01-24T22:44:51.252Z,6.41
2024-01-24T22:47:22.401Z,6.24
2024-01-24T22:49:52.429Z,6.16
2024-01-24T22:52:22.904Z,6.08
2024-01-24T22:54:55.444Z,6.09
2024-01-24T22:57:25.376Z,6.07
2024-01-24T22:59:55.260Z,6.07
2024-01-24T23:02:25.879Z,6.08
2024-01-24T23:04:58.631Z,6.03
2024-01-24T23:07:28.761Z,5.99
2024-01-24T23:10:01.471Z,5.94
2024-01-24T23:12:31.488Z,5.94
2024-01-24T23:15:01.514Z,5.97
2024-01-24T23:17:32.004Z,5.98
2024-01-24T23:20:04.331Z,5.92
2024-01-24T23:22:34.575Z,5.86
2024-01-24T23:25:08.375Z,5.87
2024-01-24T23:27:38.294Z,5.85
2024-01-24T23:30:10.166Z,5.87
2024-01-24T23:32:40.155Z,5.86
2024-01-24T23:35:11.350Z,5.92
2024-01-24T23:37:41.591Z,5.95
2024-01-24T23:40:15.501Z,5.94
2024-01-24T23:42:46.566Z,5.94
2024-01-24T23:45:16.506Z,5.95
2024-01-24T23:47:46.570Z,5.98
2024-01-24T23:50:16.873Z,5.99
2024-01-24T23:52:47.093Z,6.02
2024-01-24T23:55:20.022Z,5.99
2024-01-24T23:57:50.000Z,5.95
